sensor_id;sensor_type;location;lat;lon;timestamp;P1;durP1;ratioP1;P2;durP2;ratioP2
39486;SDS011;25173;50.430;18.926;2022-12-20T00:02:37;21.73;;;12.63;;
39486;SDS011;25173;50.430;18.926;2022-12-20T00:05:39;25.95;;;15.38;;
39486;SDS011;25173;50.430;18.926;2022-12-20T00:08:40;25.83;;;15.38;;
39486;SDS011;25173;50.430;18.926;2022-12-20T00:11:41;25.33;;;14.25;;
39486;SDS011;25173;50.430;18.926;2022-12-20T00:14:42;26.42;;;14.73;;
39486;SDS011;25173;50.430;18.926;2022-12-20T00:17:43;26.90;;;14.50;;
39486;SDS011;25173;50.430;18.926;2022-12-20T00:20:43;27.23;;;15.27;;
39486;SDS011;25173;50.430;18.926;2022-12-20T00:23:44;27.35;;;14.85;;
39486;SDS011;25173;50.430;18.926;2022-12-20T00:26:45;33.13;;;13.43;;
39486;SDS011;25173;50.430;18.926;2022-12-20T00:29:46;25.75;;;15.07;;
39486;SDS011;25173;50.430;18.926;2022-12-20T00:32:46;25.45;;;14.13;;
39486;SDS011;25173;50.430;18.926;2022-12-20T00:35:47;23.88;;;14.75;;
39486;SDS011;25173;50.430;18.926;2022-12-20T00:38:48;25.35;;;14.43;;
39486;SDS011;25173;50.430;18.926;2022-12-20T00:41:50;25.58;;;13.52;;
39486;SDS011;25173;50.430;18.926;2022-12-20T00:44:51;26.15;;;13.90;;
39486;SDS011;25173;50.430;18.926;2022-12-20T00:47:51;24.70;;;13.82;;
39486;SDS011;25173;50.430;18.926;2022-12-20T00:50:56;23.00;;;14.15;;
39486;SDS011;25173;50.430;18.926;2022-12-20T00:53:58;21.05;;;13.10;;
39486;SDS011;25173;50.430;18.926;2022-12-20T00:56:59;23.35;;;13.15;;
39486;SDS011;25173;50.430;18.926;2022-12-20T01:00:00;23.17;;;13.63;;
39486;SDS011;25173;50.430;18.926;2022-12-20T01:03:01;25.25;;;15.25;;
39486;SDS011;25173;50.430;18.926;2022-12-20T01:06:01;24.08;;;13.85;;
39486;SDS011;25173;50.430;18.926;2022-12-20T01:09:02;22.70;;;14.20;;
39486;SDS011;25173;50.430;18.926;2022-12-20T01:12:04;23.13;;;14.30;;
39486;SDS011;25173;50.430;18.926;2022-12-20T01:15:06;23.02;;;13.43;;
39486;SDS011;25173;50.430;18.926;2022-12-20T01:18:07;22.85;;;12.80;;
39486;SDS011;25173;50.430;18.926;2022-12-20T01:21:10;18.02;;;11.85;;
39486;SDS011;25173;50.430;18.926;2022-12-20T01:24:13;22.42;;;12.85;;
39486;SDS011;25173;50.430;18.926;2022-12-20T01:27:15;23.48;;;13.93;;
39486;SDS011;25173;50.430;18.926;2022-12-20T01:30:16;27.17;;;14.15;;
39486;SDS011;25173;50.430;18.926;2022-12-20T01:33:16;19.73;;;11.95;;
39486;SDS011;25173;50.430;18.926;2022-12-20T01:36:18;23.92;;;14.13;;
39486;SDS011;25173;50.430;18.926;2022-12-20T01:39:21;21.92;;;13.15;;
39486;SDS011;25173;50.430;18.926;2022-12-20T01:42:22;26.10;;;13.27;;
39486;SDS011;25173;50.430;18.926;2022-12-20T01:45:27;20.67;;;13.48;;
39486;SDS011;25173;50.430;18.926;2022-12-20T01:48:28;20.92;;;12.65;;
39486;SDS011;25173;50.430;18.926;2022-12-20T01:51:30;21.98;;;13.20;;
39486;SDS011;25173;50.430;18.926;2022-12-20T01:54:35;22.13;;;12.88;;
39486;SDS011;25173;50.430;18.926;2022-12-20T01:57:42;21.58;;;12.13;;
39486;SDS011;25173;50.430;18.926;2022-12-20T02:00:47;22.50;;;13.43;;
39486;SDS011;25173;50.430;18.926;2022-12-20T02:03:48;22.90;;;13.10;;
39486;SDS011;25173;50.430;18.926;2022-12-20T02:06:51;22.85;;;14.05;;
39486;SDS011;25173;50.430;18.926;2022-12-20T02:09:52;23.88;;;13.73;;
39486;SDS011;25173;50.430;18.926;2022-12-20T02:12:59;23.58;;;13.63;;
39486;SDS011;25173;50.430;18.926;2022-12-20T02:16:07;23.23;;;13.70;;
39486;SDS011;25173;50.430;18.926;2022-12-20T02:32:41;21.45;;;12.88;;
39486;SDS011;25173;50.430;18.926;2022-12-20T02:35:48;25.67;;;14.45;;
39486;SDS011;25173;50.430;18.926;2022-12-20T02:38:49;20.20;;;12.02;;
39486;SDS011;25173;50.430;18.926;2022-12-20T02:41:52;22.33;;;13.63;;
39486;SDS011;25173;50.430;18.926;2022-12-20T02:44:58;25.52;;;15.18;;
39486;SDS011;25173;50.430;18.926;2022-12-20T02:48:19;23.05;;;12.90;;
39486;SDS011;25173;50.430;18.926;2022-12-20T02:51:21;20.45;;;11.43;;
39486;SDS011;25173;50.430;18.926;2022-12-20T02:54:23;20.58;;;11.90;;
39486;SDS011;25173;50.430;18.926;2022-12-20T02:57:28;23.98;;;14.45;;
39486;SDS011;25173;50.430;18.926;2022-12-20T03:00:42;21.13;;;13.25;;
39486;SDS011;25173;50.430;18.926;2022-12-20T03:03:47;20.58;;;12.98;;
39486;SDS011;25173;50.430;18.926;2022-12-20T03:10:05;21.63;;;12.60;;
39486;SDS011;25173;50.430;18.926;2022-12-20T03:13:07;20.13;;;12.27;;
39486;SDS011;25173;50.430;18.926;2022-12-20T03:16:11;20.85;;;11.98;;
39486;SDS011;25173;50.430;18.926;2022-12-20T03:19:12;20.08;;;12.98;;
39486;SDS011;25173;50.430;18.926;2022-12-20T03:22:12;20.60;;;12.77;;
39486;SDS011;25173;50.430;18.926;2022-12-20T03:25:54;25.55;;;14.43;;
39486;SDS011;25173;50.430;18.926;2022-12-20T03:29:03;22.65;;;13.57;;
39486;SDS011;25173;50.430;18.926;2022-12-20T03:32:04;24.67;;;14.48;;
39486;SDS011;25173;50.430;18.926;2022-12-20T03:35:05;26.67;;;14.88;;
39486;SDS011;25173;50.430;18.926;2022-12-20T03:41:11;22.88;;;13.35;;
39486;SDS011;25173;50.430;18.926;2022-12-20T03:44:12;27.15;;;14.95;;
39486;SDS011;25173;50.430;18.926;2022-12-20T03:47:13;29.05;;;16.75;;
39486;SDS011;25173;50.430;18.926;2022-12-20T03:50:14;31.33;;;17.63;;
39486;SDS011;25173;50.430;18.926;2022-12-20T03:53:16;30.45;;;16.55;;
39486;SDS011;25173;50.430;18.926;2022-12-20T03:56:18;31.23;;;16.85;;
39486;SDS011;25173;50.430;18.926;2022-12-20T03:59:19;38.85;;;18.90;;
39486;SDS011;25173;50.430;18.926;2022-12-20T04:02:20;32.22;;;17.48;;
39486;SDS011;25173;50.430;18.926;2022-12-20T04:05:21;34.35;;;16.88;;
39486;SDS011;25173;50.430;18.926;2022-12-20T04:08:22;30.77;;;17.13;;
39486;SDS011;25173;50.430;18.926;2022-12-20T04:11:24;29.75;;;16.17;;
39486;SDS011;25173;50.430;18.926;2022-12-20T04:14:40;27.48;;;14.88;;
39486;SDS011;25173;50.430;18.926;2022-12-20T04:17:41;26.30;;;15.48;;
39486;SDS011;25173;50.430;18.926;2022-12-20T04:20:42;28.55;;;15.43;;
39486;SDS011;25173;50.430;18.926;2022-12-20T04:23:52;28.30;;;16.13;;
39486;SDS011;25173;50.430;18.926;2022-12-20T04:26:52;27.30;;;15.63;;
39486;SDS011;25173;50.430;18.926;2022-12-20T04:29:53;29.63;;;17.08;;
39486;SDS011;25173;50.430;18.926;2022-12-20T04:32:56;22.52;;;13.20;;
39486;SDS011;25173;50.430;18.926;2022-12-20T04:35:59;27.55;;;16.27;;
39486;SDS011;25173;50.430;18.926;2022-12-20T04:39:01;28.95;;;16.90;;
39486;SDS011;25173;50.430;18.926;2022-12-20T04:42:05;38.22;;;22.17;;
39486;SDS011;25173;50.430;18.926;2022-12-20T04:45:05;37.05;;;21.77;;
39486;SDS011;25173;50.430;18.926;2022-12-20T04:48:06;28.35;;;16.45;;
39486;SDS011;25173;50.430;18.926;2022-12-20T04:51:11;27.63;;;16.90;;
39486;SDS011;25173;50.430;18.926;2022-12-20T04:54:12;25.55;;;14.80;;
39486;SDS011;25173;50.430;18.926;2022-12-20T04:57:21;29.38;;;16.35;;
39486;SDS011;25173;50.430;18.926;2022-12-20T05:00:23;26.73;;;16.38;;
39486;SDS011;25173;50.430;18.926;2022-12-20T05:03:32;24.88;;;15.77;;
39486;SDS011;25173;50.430;18.926;2022-12-20T05:06:33;35.78;;;19.20;;
39486;SDS011;25173;50.430;18.926;2022-12-20T05:09:34;32.17;;;18.30;;
39486;SDS011;25173;50.430;18.926;2022-12-20T05:12:34;32.05;;;18.38;;
39486;SDS011;25173;50.430;18.926;2022-12-20T05:15:37;31.10;;;17.33;;
39486;SDS011;25173;50.430;18.926;2022-12-20T05:18:38;28.83;;;16.92;;
39486;SDS011;25173;50.430;18.926;2022-12-20T05:21:40;33.42;;;19.00;;
39486;SDS011;25173;50.430;18.926;2022-12-20T05:24:59;37.35;;;21.80;;
39486;SDS011;25173;50.430;18.926;2022-12-20T05:28:19;29.73;;;17.30;;
39486;SDS011;25173;50.430;18.926;2022-12-20T05:31:22;26.27;;;15.77;;
39486;SDS011;25173;50.430;18.926;2022-12-20T05:34:26;32.03;;;17.63;;
39486;SDS011;25173;50.430;18.926;2022-12-20T05:37:29;30.40;;;16.90;;
39486;SDS011;25173;50.430;18.926;2022-12-20T05:40:41;28.10;;;16.77;;
39486;SDS011;25173;50.430;18.926;2022-12-20T05:43:44;32.90;;;19.98;;
39486;SDS011;25173;50.430;18.926;2022-12-20T05:46:46;30.30;;;20.02;;
39486;SDS011;25173;50.430;18.926;2022-12-20T05:49:52;34.13;;;19.45;;
39486;SDS011;25173;50.430;18.926;2022-12-20T05:52:55;33.53;;;19.20;;
39486;SDS011;25173;50.430;18.926;2022-12-20T05:55:55;37.08;;;22.83;;
39486;SDS011;25173;50.430;18.926;2022-12-20T05:59:02;27.52;;;18.05;;
39486;SDS011;25173;50.430;18.926;2022-12-20T06:02:03;35.53;;;21.38;;
39486;SDS011;25173;50.430;18.926;2022-12-20T06:05:05;29.63;;;17.20;;
39486;SDS011;25173;50.430;18.926;2022-12-20T06:08:06;27.55;;;14.30;;
39486;SDS011;25173;50.430;18.926;2022-12-20T06:11:07;30.45;;;17.95;;
39486;SDS011;25173;50.430;18.926;2022-12-20T06:14:18;28.77;;;18.40;;
39486;SDS011;25173;50.430;18.926;2022-12-20T06:17:21;27.05;;;17.70;;
39486;SDS011;25173;50.430;18.926;2022-12-20T06:20:22;30.38;;;17.77;;
39486;SDS011;25173;50.430;18.926;2022-12-20T06:23:24;29.70;;;19.27;;
39486;SDS011;25173;50.430;18.926;2022-12-20T06:26:40;28.85;;;16.15;;
39486;SDS011;25173;50.430;18.926;2022-12-20T06:29:42;34.03;;;19.67;;
39486;SDS011;25173;50.430;18.926;2022-12-20T06:32:49;31.50;;;18.35;;
39486;SDS011;25173;50.430;18.926;2022-12-20T06:35:50;40.45;;;25.42;;
39486;SDS011;25173;50.430;18.926;2022-12-20T06:38:52;40.30;;;23.55;;
39486;SDS011;25173;50.430;18.926;2022-12-20T06:42:04;40.72;;;24.70;;
39486;SDS011;25173;50.430;18.926;2022-12-20T06:45:08;33.50;;;20.05;;
39486;SDS011;25173;50.430;18.926;2022-12-20T06:48:10;34.10;;;20.77;;
39486;SDS011;25173;50.430;18.926;2022-12-20T06:51:14;34.80;;;20.30;;
39486;SDS011;25173;50.430;18.926;2022-12-20T06:54:16;34.63;;;20.30;;
39486;SDS011;25173;50.430;18.926;2022-12-20T06:57:17;44.17;;;23.92;;
39486;SDS011;25173;50.430;18.926;2022-12-20T07:00:21;34.30;;;21.73;;
39486;SDS011;25173;50.430;18.926;2022-12-20T07:03:22;49.47;;;28.77;;
39486;SDS011;25173;50.430;18.926;2022-12-20T07:06:23;39.58;;;21.65;;
39486;SDS011;25173;50.430;18.926;2022-12-20T07:09:23;33.55;;;20.30;;
39486;SDS011;25173;50.430;18.926;2022-12-20T07:12:24;37.58;;;22.98;;
39486;SDS011;25173;50.430;18.926;2022-12-20T07:15:25;40.30;;;23.80;;
39486;SDS011;25173;50.430;18.926;2022-12-20T07:18:25;50.65;;;26.95;;
39486;SDS011;25173;50.430;18.926;2022-12-20T07:21:26;43.95;;;26.45;;
39486;SDS011;25173;50.430;18.926;2022-12-20T07:24:27;48.20;;;26.67;;
39486;SDS011;25173;50.430;18.926;2022-12-20T07:27:28;38.00;;;21.70;;
39486;SDS011;25173;50.430;18.926;2022-12-20T07:30:29;62.13;;;37.35;;
39486;SDS011;25173;50.430;18.926;2022-12-20T07:33:30;37.78;;;22.35;;
39486;SDS011;25173;50.430;18.926;2022-12-20T07:36:32;44.42;;;23.67;;
39486;SDS011;25173;50.430;18.926;2022-12-20T07:39:32;36.22;;;20.88;;
39486;SDS011;25173;50.430;18.926;2022-12-20T07:42:33;34.13;;;20.25;;
39486;SDS011;25173;50.430;18.926;2022-12-20T07:45:34;36.28;;;20.60;;
39486;SDS011;25173;50.430;18.926;2022-12-20T07:48:36;36.42;;;21.70;;
39486;SDS011;25173;50.430;18.926;2022-12-20T07:51:38;31.58;;;18.08;;
39486;SDS011;25173;50.430;18.926;2022-12-20T07:57:56;39.08;;;22.67;;
39486;SDS011;25173;50.430;18.926;2022-12-20T08:01:03;37.78;;;21.95;;
39486;SDS011;25173;50.430;18.926;2022-12-20T08:04:06;36.45;;;21.30;;
39486;SDS011;25173;50.430;18.926;2022-12-20T08:07:12;30.83;;;17.50;;
39486;SDS011;25173;50.430;18.926;2022-12-20T08:10:13;34.63;;;19.77;;
39486;SDS011;25173;50.430;18.926;2022-12-20T08:13:16;37.92;;;22.52;;
39486;SDS011;25173;50.430;18.926;2022-12-20T08:16:17;39.35;;;22.73;;
39486;SDS011;25173;50.430;18.926;2022-12-20T08:19:18;37.05;;;21.25;;
39486;SDS011;25173;50.430;18.926;2022-12-20T08:22:18;31.52;;;19.90;;
39486;SDS011;25173;50.430;18.926;2022-12-20T08:25:19;35.08;;;22.15;;
39486;SDS011;25173;50.430;18.926;2022-12-20T08:28:20;35.95;;;20.45;;
39486;SDS011;25173;50.430;18.926;2022-12-20T08:31:21;36.90;;;21.25;;
39486;SDS011;25173;50.430;18.926;2022-12-20T08:34:22;38.83;;;21.83;;
39486;SDS011;25173;50.430;18.926;2022-12-20T08:37:23;34.47;;;20.65;;
39486;SDS011;25173;50.430;18.926;2022-12-20T08:40:23;34.85;;;22.30;;
39486;SDS011;25173;50.430;18.926;2022-12-20T08:43:24;39.30;;;22.40;;
39486;SDS011;25173;50.430;18.926;2022-12-20T08:46:25;38.22;;;22.08;;
39486;SDS011;25173;50.430;18.926;2022-12-20T08:49:25;30.35;;;18.60;;
39486;SDS011;25173;50.430;18.926;2022-12-20T08:52:27;34.80;;;20.05;;
39486;SDS011;25173;50.430;18.926;2022-12-20T08:55:29;35.42;;;20.25;;
39486;SDS011;25173;50.430;18.926;2022-12-20T08:58:29;33.70;;;20.80;;
39486;SDS011;25173;50.430;18.926;2022-12-20T09:01:30;37.45;;;22.70;;
39486;SDS011;25173;50.430;18.926;2022-12-20T09:04:32;43.75;;;26.35;;
39486;SDS011;25173;50.430;18.926;2022-12-20T09:07:33;45.78;;;27.90;;
39486;SDS011;25173;50.430;18.926;2022-12-20T09:10:34;43.83;;;24.55;;
39486;SDS011;25173;50.430;18.926;2022-12-20T09:13:34;35.10;;;21.55;;
39486;SDS011;25173;50.430;18.926;2022-12-20T09:16:35;36.38;;;20.58;;
39486;SDS011;25173;50.430;18.926;2022-12-20T09:19:36;47.95;;;25.20;;
39486;SDS011;25173;50.430;18.926;2022-12-20T09:22:37;63.88;;;30.00;;
39486;SDS011;25173;50.430;18.926;2022-12-20T09:25:39;46.08;;;24.85;;
39486;SDS011;25173;50.430;18.926;2022-12-20T09:28:40;60.88;;;30.25;;
39486;SDS011;25173;50.430;18.926;2022-12-20T09:31:42;47.00;;;26.50;;
39486;SDS011;25173;50.430;18.926;2022-12-20T09:34:42;53.03;;;29.77;;
39486;SDS011;25173;50.430;18.926;2022-12-20T09:37:43;37.65;;;22.17;;
39486;SDS011;25173;50.430;18.926;2022-12-20T09:40:44;35.40;;;21.15;;
39486;SDS011;25173;50.430;18.926;2022-12-20T09:43:48;38.78;;;23.27;;
39486;SDS011;25173;50.430;18.926;2022-12-20T09:46:52;40.85;;;22.02;;
39486;SDS011;25173;50.430;18.926;2022-12-20T09:49:59;35.67;;;19.88;;
39486;SDS011;25173;50.430;18.926;2022-12-20T09:53:07;49.17;;;27.58;;
39486;SDS011;25173;50.430;18.926;2022-12-20T09:59:34;49.28;;;27.23;;
39486;SDS011;25173;50.430;18.926;2022-12-20T10:02:38;36.08;;;22.25;;
39486;SDS011;25173;50.430;18.926;2022-12-20T10:05:44;49.20;;;29.35;;
39486;SDS011;25173;50.430;18.926;2022-12-20T10:08:54;52.40;;;32.53;;
39486;SDS011;25173;50.430;18.926;2022-12-20T10:18:38;32.42;;;18.85;;
39486;SDS011;25173;50.430;18.926;2022-12-20T10:25:35;55.58;;;35.17;;
39486;SDS011;25173;50.430;18.926;2022-12-20T10:28:36;36.28;;;23.10;;
39486;SDS011;25173;50.430;18.926;2022-12-20T10:31:37;48.78;;;32.45;;
39486;SDS011;25173;50.430;18.926;2022-12-20T10:34:40;38.03;;;21.27;;
39486;SDS011;25173;50.430;18.926;2022-12-20T10:41:00;44.33;;;25.08;;
39486;SDS011;25173;50.430;18.926;2022-12-20T10:44:36;46.05;;;25.77;;
39486;SDS011;25173;50.430;18.926;2022-12-20T10:50:37;39.30;;;22.75;;
39486;SDS011;25173;50.430;18.926;2022-12-20T10:56:54;43.73;;;23.57;;
39486;SDS011;25173;50.430;18.926;2022-12-20T10:59:58;45.72;;;24.95;;
39486;SDS011;25173;50.430;18.926;2022-12-20T11:03:08;60.80;;;33.05;;
39486;SDS011;25173;50.430;18.926;2022-12-20T11:06:21;51.90;;;37.10;;
39486;SDS011;25173;50.430;18.926;2022-12-20T11:12:27;41.80;;;25.77;;
39486;SDS011;25173;50.430;18.926;2022-12-20T11:15:29;58.65;;;33.75;;
39486;SDS011;25173;50.430;18.926;2022-12-20T11:18:55;40.78;;;24.85;;
39486;SDS011;25173;50.430;18.926;2022-12-20T11:22:09;56.15;;;31.15;;
39486;SDS011;25173;50.430;18.926;2022-12-20T11:35:24;53.13;;;30.45;;
39486;SDS011;25173;50.430;18.926;2022-12-20T11:38:40;64.82;;;33.10;;
39486;SDS011;25173;50.430;18.926;2022-12-20T11:41:49;36.90;;;21.52;;
39486;SDS011;25173;50.430;18.926;2022-12-20T11:51:23;32.85;;;19.08;;
39486;SDS011;25173;50.430;18.926;2022-12-20T11:54:44;30.90;;;19.35;;
39486;SDS011;25173;50.430;18.926;2022-12-20T12:07:11;30.83;;;18.38;;
39486;SDS011;25173;50.430;18.926;2022-12-20T12:10:16;39.20;;;25.60;;
39486;SDS011;25173;50.430;18.926;2022-12-20T12:13:25;35.50;;;23.13;;
39486;SDS011;25173;50.430;18.926;2022-12-20T12:16:34;30.00;;;20.50;;
39486;SDS011;25173;50.430;18.926;2022-12-20T12:19:40;36.22;;;22.50;;
39486;SDS011;25173;50.430;18.926;2022-12-20T12:22:48;41.35;;;27.13;;
39486;SDS011;25173;50.430;18.926;2022-12-20T12:25:52;38.43;;;23.47;;
39486;SDS011;25173;50.430;18.926;2022-12-20T12:29:15;34.28;;;21.23;;
39486;SDS011;25173;50.430;18.926;2022-12-20T12:32:23;30.27;;;18.70;;
39486;SDS011;25173;50.430;18.926;2022-12-20T12:35:45;42.75;;;23.23;;
39486;SDS011;25173;50.430;18.926;2022-12-20T12:39:37;32.72;;;20.98;;
39486;SDS011;25173;50.430;18.926;2022-12-20T12:46:08;49.28;;;27.67;;
39486;SDS011;25173;50.430;18.926;2022-12-20T12:49:16;43.75;;;24.52;;
39486;SDS011;25173;50.430;18.926;2022-12-20T12:52:28;37.90;;;22.88;;
39486;SDS011;25173;50.430;18.926;2022-12-20T12:55:40;39.55;;;23.10;;
39486;SDS011;25173;50.430;18.926;2022-12-20T13:08:20;39.25;;;23.60;;
39486;SDS011;25173;50.430;18.926;2022-12-20T13:11:48;52.60;;;29.50;;
39486;SDS011;25173;50.430;18.926;2022-12-20T13:14:49;62.53;;;38.45;;
39486;SDS011;25173;50.430;18.926;2022-12-20T13:17:50;60.05;;;34.13;;
39486;SDS011;25173;50.430;18.926;2022-12-20T13:27:52;50.67;;;28.58;;
39486;SDS011;25173;50.430;18.926;2022-12-20T13:34:01;56.58;;;32.00;;
39486;SDS011;25173;50.430;18.926;2022-12-20T13:37:02;47.67;;;27.52;;
39486;SDS011;25173;50.430;18.926;2022-12-20T13:40:58;31.17;;;19.70;;
39486;SDS011;25173;50.430;18.926;2022-12-20T13:50:32;46.03;;;26.67;;
39486;SDS011;25173;50.430;18.926;2022-12-20T13:53:53;35.95;;;22.20;;
39486;SDS011;25173;50.430;18.926;2022-12-20T13:57:06;42.80;;;25.67;;
39486;SDS011;25173;50.430;18.926;2022-12-20T14:00:14;46.55;;;26.85;;
39486;SDS011;25173;50.430;18.926;2022-12-20T14:03:27;39.35;;;23.73;;
39486;SDS011;25173;50.430;18.926;2022-12-20T14:06:31;40.88;;;24.10;;
39486;SDS011;25173;50.430;18.926;2022-12-20T14:09:36;42.13;;;24.17;;
39486;SDS011;25173;50.430;18.926;2022-12-20T14:12:40;43.15;;;25.70;;
39486;SDS011;25173;50.430;18.926;2022-12-20T14:15:46;38.00;;;22.88;;
39486;SDS011;25173;50.430;18.926;2022-12-20T14:18:50;46.05;;;28.02;;
39486;SDS011;25173;50.430;18.926;2022-12-20T14:22:00;44.38;;;26.77;;
39486;SDS011;25173;50.430;18.926;2022-12-20T14:25:01;58.60;;;33.90;;
39486;SDS011;25173;50.430;18.926;2022-12-20T14:28:09;64.20;;;39.17;;
39486;SDS011;25173;50.430;18.926;2022-12-20T14:31:42;74.57;;;40.60;;
39486;SDS011;25173;50.430;18.926;2022-12-20T14:34:44;75.68;;;44.35;;
39486;SDS011;25173;50.430;18.926;2022-12-20T14:37:56;68.22;;;37.63;;
39486;SDS011;25173;50.430;18.926;2022-12-20T14:40:59;65.00;;;37.75;;
39486;SDS011;25173;50.430;18.926;2022-12-20T14:44:01;50.53;;;27.92;;
39486;SDS011;25173;50.430;18.926;2022-12-20T14:47:24;60.10;;;32.90;;
39486;SDS011;25173;50.430;18.926;2022-12-20T14:50:28;56.17;;;32.67;;
39486;SDS011;25173;50.430;18.926;2022-12-20T14:53:29;65.00;;;38.28;;
39486;SDS011;25173;50.430;18.926;2022-12-20T14:56:30;65.57;;;36.33;;
39486;SDS011;25173;50.430;18.926;2022-12-20T14:59:32;64.22;;;34.25;;
39486;SDS011;25173;50.430;18.926;2022-12-20T15:02:34;66.80;;;33.25;;
39486;SDS011;25173;50.430;18.926;2022-12-20T15:05:49;46.22;;;26.02;;
39486;SDS011;25173;50.430;18.926;2022-12-20T15:08:51;55.50;;;30.95;;
39486;SDS011;25173;50.430;18.926;2022-12-20T15:11:52;69.35;;;35.15;;
39486;SDS011;25173;50.430;18.926;2022-12-20T15:14:53;54.88;;;33.25;;
39486;SDS011;25173;50.430;18.926;2022-12-20T15:17:54;59.83;;;32.60;;
39486;SDS011;25173;50.430;18.926;2022-12-20T15:20:58;59.47;;;35.65;;
39486;SDS011;25173;50.430;18.926;2022-12-20T15:24:03;59.17;;;31.70;;
39486;SDS011;25173;50.430;18.926;2022-12-20T15:27:11;45.60;;;27.25;;
39486;SDS011;25173;50.430;18.926;2022-12-20T15:30:13;46.63;;;28.33;;
39486;SDS011;25173;50.430;18.926;2022-12-20T15:33:18;38.92;;;23.50;;
39486;SDS011;25173;50.430;18.926;2022-12-20T15:36:25;53.58;;;28.10;;
39486;SDS011;25173;50.430;18.926;2022-12-20T15:39:27;66.70;;;31.15;;
39486;SDS011;25173;50.430;18.926;2022-12-20T15:42:28;47.15;;;25.98;;
39486;SDS011;25173;50.430;18.926;2022-12-20T15:45:29;71.60;;;40.30;;
39486;SDS011;25173;50.430;18.926;2022-12-20T15:48:31;57.03;;;32.28;;
39486;SDS011;25173;50.430;18.926;2022-12-20T15:51:33;50.60;;;29.95;;
39486;SDS011;25173;50.430;18.926;2022-12-20T15:54:35;91.40;;;44.88;;
39486;SDS011;25173;50.430;18.926;2022-12-20T15:57:36;121.75;;;56.78;;
39486;SDS011;25173;50.430;18.926;2022-12-20T16:00:38;88.15;;;42.72;;
39486;SDS011;25173;50.430;18.926;2022-12-20T16:03:40;72.07;;;38.88;;
39486;SDS011;25173;50.430;18.926;2022-12-20T16:06:41;58.60;;;32.53;;
39486;SDS011;25173;50.430;18.926;2022-12-20T16:09:43;95.30;;;40.03;;
39486;SDS011;25173;50.430;18.926;2022-12-20T16:12:43;52.17;;;27.85;;
39486;SDS011;25173;50.430;18.926;2022-12-20T16:15:44;76.72;;;37.67;;
39486;SDS011;25173;50.430;18.926;2022-12-20T16:18:45;54.03;;;29.33;;
39486;SDS011;25173;50.430;18.926;2022-12-20T16:21:47;86.47;;;42.92;;
39486;SDS011;25173;50.430;18.926;2022-12-20T16:24:49;60.72;;;31.45;;
39486;SDS011;25173;50.430;18.926;2022-12-20T16:27:51;73.97;;;36.42;;
39486;SDS011;25173;50.430;18.926;2022-12-20T16:30:51;71.03;;;36.15;;
39486;SDS011;25173;50.430;18.926;2022-12-20T16:33:53;76.78;;;41.45;;
39486;SDS011;25173;50.430;18.926;2022-12-20T16:36:55;104.93;;;47.83;;
39486;SDS011;25173;50.430;18.926;2022-12-20T16:39:55;98.00;;;45.00;;
39486;SDS011;25173;50.430;18.926;2022-12-20T16:42:56;81.85;;;40.25;;
39486;SDS011;25173;50.430;18.926;2022-12-20T16:45:58;81.95;;;39.97;;
39486;SDS011;25173;50.430;18.926;2022-12-20T16:48:59;66.32;;;35.25;;
39486;SDS011;25173;50.430;18.926;2022-12-20T16:52:00;76.00;;;39.88;;
39486;SDS011;25173;50.430;18.926;2022-12-20T16:55:04;74.03;;;41.67;;
39486;SDS011;25173;50.430;18.926;2022-12-20T16:58:05;56.97;;;31.10;;
39486;SDS011;25173;50.430;18.926;2022-12-20T17:01:08;58.58;;;32.53;;
39486;SDS011;25173;50.430;18.926;2022-12-20T17:04:14;78.80;;;41.30;;
39486;SDS011;25173;50.430;18.926;2022-12-20T17:07:16;59.20;;;33.05;;
39486;SDS011;25173;50.430;18.926;2022-12-20T17:10:17;89.40;;;42.33;;
39486;SDS011;25173;50.430;18.926;2022-12-20T17:13:18;63.38;;;34.63;;
39486;SDS011;25173;50.430;18.926;2022-12-20T17:16:21;81.70;;;42.28;;
39486;SDS011;25173;50.430;18.926;2022-12-20T17:19:22;55.83;;;32.85;;
39486;SDS011;25173;50.430;18.926;2022-12-20T17:22:23;69.50;;;36.08;;
39486;SDS011;25173;50.430;18.926;2022-12-20T17:25:28;56.50;;;32.15;;
39486;SDS011;25173;50.430;18.926;2022-12-20T17:28:31;61.83;;;33.00;;
39486;SDS011;25173;50.430;18.926;2022-12-20T17:31:33;68.63;;;40.33;;
39486;SDS011;25173;50.430;18.926;2022-12-20T17:34:38;68.95;;;40.13;;
39486;SDS011;25173;50.430;18.926;2022-12-20T17:37:39;68.43;;;37.53;;
39486;SDS011;25173;50.430;18.926;2022-12-20T17:40:39;57.97;;;33.40;;
39486;SDS011;25173;50.430;18.926;2022-12-20T17:43:40;72.75;;;39.28;;
39486;SDS011;25173;50.430;18.926;2022-12-20T17:46:40;70.32;;;37.50;;
39486;SDS011;25173;50.430;18.926;2022-12-20T17:49:41;49.75;;;28.15;;
39486;SDS011;25173;50.430;18.926;2022-12-20T17:52:42;61.25;;;33.13;;
39486;SDS011;25173;50.430;18.926;2022-12-20T17:55:44;60.10;;;34.72;;
39486;SDS011;25173;50.430;18.926;2022-12-20T17:58:45;62.72;;;35.13;;
39486;SDS011;25173;50.430;18.926;2022-12-20T18:01:45;62.67;;;35.90;;
39486;SDS011;25173;50.430;18.926;2022-12-20T18:04:46;54.28;;;33.08;;
39486;SDS011;25173;50.430;18.926;2022-12-20T18:07:53;54.83;;;31.25;;
39486;SDS011;25173;50.430;18.926;2022-12-20T18:10:56;51.53;;;28.38;;
39486;SDS011;25173;50.430;18.926;2022-12-20T18:13:58;56.22;;;31.35;;
39486;SDS011;25173;50.430;18.926;2022-12-20T18:16:59;54.67;;;33.72;;
39486;SDS011;25173;50.430;18.926;2022-12-20T18:20:00;84.00;;;46.70;;
39486;SDS011;25173;50.430;18.926;2022-12-20T18:23:01;74.88;;;40.13;;
39486;SDS011;25173;50.430;18.926;2022-12-20T18:29:06;63.60;;;35.63;;
39486;SDS011;25173;50.430;18.926;2022-12-20T18:32:08;58.38;;;32.13;;
39486;SDS011;25173;50.430;18.926;2022-12-20T18:35:09;58.65;;;31.00;;
39486;SDS011;25173;50.430;18.926;2022-12-20T18:38:10;52.83;;;30.95;;
39486;SDS011;25173;50.430;18.926;2022-12-20T18:41:11;51.17;;;30.73;;
39486;SDS011;25173;50.430;18.926;2022-12-20T18:44:14;62.00;;;36.67;;
39486;SDS011;25173;50.430;18.926;2022-12-20T18:47:14;59.10;;;33.90;;
39486;SDS011;25173;50.430;18.926;2022-12-20T18:50:15;56.63;;;32.40;;
39486;SDS011;25173;50.430;18.926;2022-12-20T18:53:16;53.42;;;30.27;;
39486;SDS011;25173;50.430;18.926;2022-12-20T18:56:18;49.35;;;26.88;;
39486;SDS011;25173;50.430;18.926;2022-12-20T18:59:20;52.45;;;29.27;;
39486;SDS011;25173;50.430;18.926;2022-12-20T19:02:21;51.78;;;29.35;;
39486;SDS011;25173;50.430;18.926;2022-12-20T19:05:22;61.22;;;35.17;;
39486;SDS011;25173;50.430;18.926;2022-12-20T19:08:24;52.53;;;29.92;;
39486;SDS011;25173;50.430;18.926;2022-12-20T19:11:26;58.85;;;33.95;;
39486;SDS011;25173;50.430;18.926;2022-12-20T19:14:28;58.53;;;34.60;;
39486;SDS011;25173;50.430;18.926;2022-12-20T19:17:29;75.05;;;42.65;;
39486;SDS011;25173;50.430;18.926;2022-12-20T19:20:30;66.30;;;34.03;;
39486;SDS011;25173;50.430;18.926;2022-12-20T19:23:33;75.28;;;38.97;;
39486;SDS011;25173;50.430;18.926;2022-12-20T19:26:35;91.68;;;49.28;;
39486;SDS011;25173;50.430;18.926;2022-12-20T19:29:37;89.03;;;50.10;;